Airfield :
LOGIN :

Register | Disclaimer

   EN    FR    IT 

 










Legend :    VFR   Marginal VFR   IFR   Intensive IFR   Very Intensive IFR
Visi :
Ceiling :
>= 8 km
>= 3000ft
5 to 8 km
1000 to 3000 ft
1500m to 5 km
500 to 1000 ft
800 to 1500m
200 to 500 ft
< 800m
< 200 ft
Symbols :   Thunderstorms  Fog  Heavy snow  Heavy precipitations  Wind > 20 kt
SIGMETs :     Misc.  Thunderstorms  Icing  Turbulence  Mountain Waves  Volcanic Ashes







- Airport Elevation : 614 ft
- IATA code : CRL


EBCI - Charleroi

CURRENT METAR :
  • 230450Z 19017G29KT CAVOK 12/04 Q0999 TEMPO 19017G30KT

EXPIRED METARs :
  • 230420Z 18017KT 150V210 CAVOK 12/04 Q0999 TEMPO 19018G30KT
  • 230350Z 19016KT CAVOK 12/04 Q0999 TEMPO 19018G30KT
  • 230320Z 19016KT CAVOK 12/03 Q1000 TEMPO 19018G30KT
  • 230250Z 19017G28KT CAVOK 12/04 Q1000 TEMPO 19018G30KT
  • 230220Z 19016KT CAVOK 12/03 Q1000 TEMPO 19018G30KT

TAF TAF EBCI
Valid from the 23 at 00:00 until the 24 at 06:00 UTC


222310Z 2300/2406 18015KT CAVOK
TEMPO 2300/2311 20020G38KT
TEMPO 2308/2310 SCT006 BKN009
PROB30
TEMPO 2308/2310 4000 SHRA
BECMG 2310/2312 25012KT
TEMPO 2311/2316 24015G25KT
BECMG 2323/2401 18006KT
BECMG 2404/2406 4000 RA SCT006 BKN009
No reported NOTAMs for that airfield.
3 SIGMETs reported for the Brussels FIR (EBBU) :
 
Severe turbulence
EBBU SIGMET 03 VALID 230300/230700 EBBR
EBBU BRUSSELS FIR SEV TURB FCST W OF E005 SFC/FL050 MOV NE 15KT NC=
SIGMET 01 cancelation
EBBU SIGMET 02 VALID 230300/230700 EBBR
EBBU BRUSSELS FIR CNL SIGMET 01 VALID 230300/230700=
SIGMET 01  CANCELED :
Severe turbulence
EBBU SIGMET 01 VALID 230300/230700 EBBR
EBBU BRUSSELS FIR SEV TURB FCST W E005 SFC/FL050 MOV NE 15KT NC=



MET'MAP, your aeronautical weather chart ! - Copyright ORBIFLY December 2007 - Disclaimer

ORBIFLY MET'MAP TEAM :

Programming & Development : Alexandra Zaïnal
Concept & Development : Baudouin d'Aumeries
Co-Development & Prog : Marc-Olivier Méhu
Technical & hardware support : Manuel Goepfert

Contact : metmap@orbifly.com




SOURCES & CREDITS :

   NOAA